createdAt,value
2018-12-16T00:01:14.077Z,0.42
2018-12-16T00:03:43.175Z,0.33
2018-12-16T00:06:12.391Z,0.31
2018-12-16T00:08:42.711Z,0.27
2018-12-16T00:11:12.040Z,0.23
2018-12-16T00:13:41.199Z,0.28
2018-12-16T00:16:10.380Z,0.33
2018-12-16T00:18:39.511Z,0.27
2018-12-16T00:21:09.028Z,0.32
2018-12-16T00:23:38.277Z,0.23
2018-12-16T00:26:07.403Z,0.19
2018-12-16T00:28:36.468Z,0.36
2018-12-16T00:31:05.805Z,0.34
2018-12-16T00:33:35.207Z,0.38
2018-12-16T00:36:04.471Z,0.37
2018-12-16T00:38:33.915Z,0.31
2018-12-16T00:41:03.285Z,0.33
2018-12-16T00:43:32.388Z,0.34
2018-12-16T00:46:01.621Z,0.46
2018-12-16T00:48:30.990Z,0.44
2018-12-16T00:51:00.142Z,0.34
2018-12-16T00:53:29.387Z,0.58
2018-12-16T00:55:58.683Z,0.56
2018-12-16T00:58:28.004Z,0.65
2018-12-16T01:00:57.286Z,0.74
2018-12-16T01:03:26.646Z,0.59
2018-12-16T01:05:55.899Z,0.60
2018-12-16T01:08:24.963Z,0.52
2018-12-16T01:10:54.207Z,0.62
2018-12-16T01:13:23.445Z,0.77
2018-12-16T01:15:52.663Z,0.50
2018-12-16T01:18:21.900Z,0.46
2018-12-16T01:20:51.189Z,0.47
2018-12-16T01:23:20.411Z,0.41
2018-12-16T01:25:49.759Z,0.36
2018-12-16T01:28:19.052Z,0.43
2018-12-16T01:30:48.192Z,0.44
2018-12-16T01:33:17.504Z,0.34
2018-12-16T01:35:46.776Z,0.23
2018-12-16T01:38:16.135Z,0.26
2018-12-16T01:40:45.367Z,0.45
2018-12-16T01:43:14.620Z,0.38
2018-12-16T01:45:43.987Z,0.28
2018-12-16T01:48:13.119Z,0.32
2018-12-16T01:50:42.231Z,0.34
2018-12-16T01:53:11.538Z,0.33
2018-12-16T01:55:40.711Z,0.33
2018-12-16T01:58:09.968Z,0.52
2018-12-16T02:00:39.328Z,0.64
2018-12-16T02:03:08.631Z,0.60
2018-12-16T02:05:37.838Z,0.40
2018-12-16T02:08:06.983Z,0.41
2018-12-16T02:10:36.172Z,0.39
2018-12-16T02:13:05.480Z,0.41
2018-12-16T02:15:34.660Z,0.39
2018-12-16T02:18:03.872Z,0.43
2018-12-16T02:20:33.041Z,0.63
2018-12-16T02:23:02.198Z,0.53
2018-12-16T02:25:31.543Z,0.42
2018-12-16T02:28:00.747Z,0.37
2018-12-16T02:30:29.993Z,0.38
2018-12-16T02:32:59.460Z,0.57
2018-12-16T02:35:28.549Z,0.56
2018-12-16T02:37:57.978Z,0.55
2018-12-16T02:40:27.268Z,0.40
2018-12-16T02:42:56.476Z,0.41
2018-12-16T02:45:25.995Z,0.37
2018-12-16T02:47:55.207Z,0.35
2018-12-16T02:50:24.538Z,0.38
2018-12-16T02:52:53.641Z,0.41
2018-12-16T02:55:22.918Z,0.27
2018-12-16T02:57:52.152Z,0.48
2018-12-16T03:00:21.457Z,0.45
2018-12-16T03:02:50.603Z,0.55
2018-12-16T03:05:19.896Z,0.46
2018-12-16T03:07:49.183Z,0.35
2018-12-16T03:10:18.305Z,0.43
2018-12-16T03:12:47.703Z,0.36
2018-12-16T03:15:16.860Z,0.34
2018-12-16T03:17:46.299Z,0.35
2018-12-16T03:20:15.609Z,0.28
2018-12-16T03:22:44.737Z,0.36
2018-12-16T03:25:13.809Z,0.29
2018-12-16T03:27:43.041Z,0.19
2018-12-16T03:30:12.133Z,0.13
2018-12-16T03:32:41.359Z,0.00
2018-12-16T03:35:10.671Z,-0.06
2018-12-16T03:37:40.268Z,-0.04
2018-12-16T03:40:09.876Z,-0.24
2018-12-16T03:42:39.068Z,-0.27
2018-12-16T03:45:08.158Z,-0.28
2018-12-16T03:47:37.577Z,-0.36
2018-12-16T03:50:06.905Z,-0.31
2018-12-16T03:52:36.515Z,-0.37
2018-12-16T03:55:05.609Z,-0.38
2018-12-16T03:57:35.540Z,-0.48
2018-12-16T04:00:04.893Z,-0.41
2018-12-16T04:02:34.065Z,-0.51
2018-12-16T04:05:03.282Z,-0.52
2018-12-16T04:07:32.502Z,-0.55
2018-12-16T04:10:01.992Z,-0.74
2018-12-16T04:12:31.189Z,-0.78
2018-12-16T04:15:00.377Z,-0.78
2018-12-16T04:17:29.818Z,-0.92
2018-12-16T04:19:59.215Z,-0.85
2018-12-16T04:22:28.603Z,-0.72
2018-12-16T04:24:58.158Z,-0.72
2018-12-16T04:27:27.502Z,-0.83
2018-12-16T04:29:56.605Z,-0.95
2018-12-16T04:32:25.951Z,-0.88
2018-12-16T04:34:55.412Z,-0.75
2018-12-16T04:37:24.624Z,-0.74
2018-12-16T04:39:53.811Z,-0.88
2018-12-16T04:42:23.012Z,-0.68
2018-12-16T04:44:52.180Z,-0.74
2018-12-16T04:47:21.298Z,-0.84
2018-12-16T04:49:50.472Z,-0.85
2018-12-16T04:52:19.610Z,-0.90
2018-12-16T04:54:48.755Z,-0.83
2018-12-16T04:57:17.884Z,-0.78
2018-12-16T04:59:47.145Z,-0.76
2018-12-16T05:02:16.911Z,-0.82
2018-12-16T05:04:46.188Z,-0.65
2018-12-16T05:07:15.577Z,-0.60
2018-12-16T05:09:44.983Z,-0.88
2018-12-16T05:12:14.389Z,-0.90
2018-12-16T05:14:43.863Z,-0.78
2018-12-16T05:17:13.224Z,-0.72
2018-12-16T05:19:42.366Z,-0.78
2018-12-16T05:22:11.622Z,-0.81
2018-12-16T05:24:41.211Z,-0.67
2018-12-16T05:27:10.779Z,-0.77
2018-12-16T05:29:39.977Z,-0.79
2018-12-16T05:32:09.119Z,-0.80
2018-12-16T05:34:38.480Z,-0.84
2018-12-16T05:37:07.883Z,-0.70
2018-12-16T05:39:37.107Z,-0.65
2018-12-16T05:42:06.318Z,-0.79
2018-12-16T05:44:35.614Z,-0.81
2018-12-16T05:47:05.046Z,-0.83
2018-12-16T05:49:34.335Z,-0.86
2018-12-16T05:52:03.513Z,-0.69
2018-12-16T05:54:32.815Z,-0.62
2018-12-16T05:57:02.015Z,-0.70
2018-12-16T05:59:31.313Z,-0.91
2018-12-16T06:02:00.488Z,-0.88
2018-12-16T06:04:29.742Z,-0.95
2018-12-16T06:06:59.011Z,-0.84
2018-12-16T06:09:28.428Z,-0.81
2018-12-16T06:11:57.720Z,-0.94
2018-12-16T06:14:26.934Z,-0.81
2018-12-16T06:16:56.413Z,-0.56
2018-12-16T06:19:25.760Z,-0.59
2018-12-16T06:21:55.135Z,-0.46
2018-12-16T06:24:24.691Z,-0.68
2018-12-16T06:26:53.831Z,-0.78
2018-12-16T06:29:23.240Z,-0.71
2018-12-16T06:31:52.385Z,-0.54
2018-12-16T06:34:21.524Z,-0.56
2018-12-16T06:36:50.948Z,-0.64
2018-12-16T06:39:20.223Z,-0.46
2018-12-16T06:41:49.375Z,-0.44
2018-12-16T06:44:18.896Z,-0.52
2018-12-16T06:46:48.011Z,-0.57
2018-12-16T06:49:17.103Z,-0.35
2018-12-16T06:51:46.416Z,-0.42
2018-12-16T06:54:15.663Z,-0.45
2018-12-16T06:56:44.948Z,-0.46
2018-12-16T06:59:14.065Z,-0.47
2018-12-16T07:01:43.304Z,-0.58
2018-12-16T07:04:12.692Z,-0.55
2018-12-16T07:06:42.120Z,-0.18
2018-12-16T07:09:11.303Z,-0.41
2018-12-16T07:11:40.688Z,-0.30
2018-12-16T07:14:10.129Z,0.04
2018-12-16T07:16:40.627Z,0.19
2018-12-16T07:19:10.077Z,0.62
2018-12-16T07:21:39.715Z,1.10
2018-12-16T07:24:09.590Z,0.56
2018-12-16T07:26:39.219Z,0.76
2018-12-16T07:29:08.476Z,0.74
2018-12-16T07:31:37.673Z,0.61
2018-12-16T07:34:06.892Z,0.11
2018-12-16T07:36:36.387Z,0.06
2018-12-16T07:39:07.263Z,0.32
2018-12-16T07:41:49.734Z,0.67
2018-12-16T07:44:19.040Z,1.07
2018-12-16T07:46:48.344Z,1.06
2018-12-16T07:49:17.687Z,0.77
2018-12-16T07:51:46.698Z,0.87
2018-12-16T07:54:16.227Z,1.16
2018-12-16T07:56:45.720Z,1.52
2018-12-16T07:59:15.012Z,1.39
2018-12-16T08:01:44.287Z,1.26
2018-12-16T08:04:13.536Z,1.06
2018-12-16T08:06:42.772Z,0.40
2018-12-16T08:09:12.076Z,0.10
2018-12-16T08:11:41.372Z,0.20
2018-12-16T08:14:10.825Z,0.47
2018-12-16T08:16:40.360Z,0.42
2018-12-16T08:19:09.742Z,0.43
2018-12-16T08:21:39.021Z,0.34
2018-12-16T08:24:08.370Z,0.28
2018-12-16T08:26:37.655Z,0.59
2018-12-16T08:29:06.882Z,0.44
2018-12-16T08:31:36.194Z,0.37
2018-12-16T08:34:05.343Z,0.34
2018-12-16T08:36:34.758Z,0.27
2018-12-16T08:39:04.868Z,0.34
2018-12-16T08:41:34.283Z,0.43
2018-12-16T08:44:03.647Z,0.62
2018-12-16T08:46:32.900Z,0.80
2018-12-16T08:49:02.173Z,1.03
2018-12-16T08:51:31.364Z,0.74
2018-12-16T08:54:00.704Z,1.07
2018-12-16T08:56:29.972Z,0.99
2018-12-16T08:58:59.315Z,1.49
2018-12-16T09:01:29.348Z,1.48
2018-12-16T09:03:59.170Z,1.27
2018-12-16T09:06:28.515Z,1.76
2018-12-16T09:08:58.284Z,2.11
2018-12-16T09:11:27.532Z,2.10
2018-12-16T09:13:56.825Z,1.61
2018-12-16T09:16:26.017Z,1.15
2018-12-16T09:18:55.337Z,0.99
2018-12-16T09:21:24.503Z,0.91
2018-12-16T09:23:53.918Z,1.30
2018-12-16T09:26:23.256Z,1.39
2018-12-16T09:28:52.715Z,1.14
2018-12-16T09:31:21.825Z,0.89
2018-12-16T09:33:50.960Z,0.69
2018-12-16T09:36:20.230Z,1.02
2018-12-16T09:38:49.804Z,1.33
2018-12-16T09:41:18.999Z,0.85
2018-12-16T09:43:48.072Z,0.55
2018-12-16T09:46:17.358Z,0.59
2018-12-16T09:48:46.732Z,0.60
2018-12-16T09:51:16.021Z,0.52
2018-12-16T09:53:45.631Z,0.50
2018-12-16T09:56:14.888Z,0.66
2018-12-16T09:58:44.319Z,0.68
2018-12-16T10:01:14.136Z,0.75
2018-12-16T10:03:43.810Z,0.72
2018-12-16T10:06:13.467Z,0.87
2018-12-16T10:08:43.128Z,0.76
2018-12-16T10:11:12.225Z,0.63
2018-12-16T10:13:41.363Z,0.64
2018-12-16T10:16:10.584Z,0.81
2018-12-16T10:18:39.905Z,0.79
2018-12-16T10:21:08.962Z,0.76
2018-12-16T10:23:38.172Z,0.96
2018-12-16T10:26:07.456Z,0.92
2018-12-16T10:28:37.301Z,0.94
2018-12-16T10:31:06.477Z,0.92
2018-12-16T10:33:35.873Z,1.16
2018-12-16T10:36:05.055Z,0.88
2018-12-16T10:38:34.388Z,1.10
2018-12-16T10:41:03.951Z,1.16
2018-12-16T10:43:33.032Z,1.19
2018-12-16T10:46:02.478Z,1.12
2018-12-16T10:48:31.751Z,1.30
2018-12-16T10:51:01.115Z,1.67
2018-12-16T10:53:30.479Z,2.33
2018-12-16T10:56:00.104Z,2.83
2018-12-16T10:58:29.498Z,2.02
2018-12-16T11:01:03.683Z,1.66
2018-12-16T11:03:33.097Z,1.78
2018-12-16T11:06:02.228Z,1.55
2018-12-16T11:08:31.690Z,1.73
2018-12-16T11:11:01.005Z,1.62
2018-12-16T11:13:30.314Z,1.45
2018-12-16T11:15:59.831Z,1.59
2018-12-16T11:18:29.994Z,1.67
2018-12-16T11:20:59.252Z,1.97
2018-12-16T11:23:28.587Z,2.32
2018-12-16T11:25:58.576Z,2.82
2018-12-16T11:28:27.673Z,2.79
2018-12-16T11:30:57.107Z,2.91
2018-12-16T11:33:26.491Z,3.09
2018-12-16T11:35:55.871Z,3.31
2018-12-16T11:38:25.096Z,3.19
2018-12-16T11:40:54.637Z,3.21
2018-12-16T11:43:24.051Z,3.48
2018-12-16T11:45:53.336Z,3.50
2018-12-16T11:48:23.285Z,3.37
2018-12-16T11:50:52.935Z,3.02
2018-12-16T11:53:22.219Z,3.20
2018-12-16T11:55:51.750Z,2.95
2018-12-16T11:58:21.117Z,2.91
2018-12-16T12:00:50.436Z,2.50
2018-12-16T12:03:20.426Z,3.07
2018-12-16T12:05:49.860Z,3.03
2018-12-16T12:08:19.049Z,3.22
2018-12-16T12:10:48.340Z,3.59
2018-12-16T12:13:17.621Z,3.56
2018-12-16T12:15:46.820Z,3.64
2018-12-16T12:18:15.943Z,2.66
2018-12-16T12:20:45.301Z,1.94
2018-12-16T12:23:14.591Z,1.94
2018-12-16T12:25:44.112Z,1.74
2018-12-16T12:28:13.711Z,1.78
2018-12-16T12:30:42.936Z,1.93
2018-12-16T12:33:12.344Z,1.62
2018-12-16T12:35:41.631Z,1.25
2018-12-16T12:38:10.888Z,1.33
2018-12-16T12:40:40.102Z,1.70
2018-12-16T12:43:09.347Z,1.61
2018-12-16T12:45:38.458Z,1.56
2018-12-16T12:48:07.890Z,1.67
2018-12-16T12:50:36.983Z,1.49
2018-12-16T12:53:06.120Z,1.61
2018-12-16T12:55:35.428Z,2.11
2018-12-16T12:58:04.825Z,2.41
2018-12-16T13:00:34.226Z,2.50
2018-12-16T13:03:03.545Z,2.87
2018-12-16T13:05:37.025Z,3.17
2018-12-16T13:08:04.110Z,3.22
2018-12-16T13:10:33.352Z,2.78
2018-12-16T13:13:02.837Z,2.66
2018-12-16T13:15:32.057Z,2.42
2018-12-16T13:18:01.155Z,2.16
2018-12-16T13:20:30.671Z,2.02
2018-12-16T13:23:00.240Z,1.78
2018-12-16T13:25:40.498Z,2.22
2018-12-16T13:28:09.882Z,2.47
2018-12-16T13:30:39.401Z,2.47
2018-12-16T13:33:09.059Z,2.52
2018-12-16T13:35:38.821Z,2.17
2018-12-16T13:38:08.533Z,2.29
2018-12-16T13:40:38.024Z,2.48
2018-12-16T13:43:07.404Z,2.09
2018-12-16T13:45:36.894Z,2.05
2018-12-16T13:48:06.296Z,2.11
2018-12-16T13:50:35.506Z,2.29
2018-12-16T13:53:04.732Z,2.00
2018-12-16T13:55:40.608Z,2.33
2018-12-16T13:58:05.325Z,2.77
2018-12-16T14:00:34.651Z,2.63
2018-12-16T14:03:03.838Z,2.98
2018-12-16T14:05:33.300Z,2.46
2018-12-16T14:08:02.549Z,2.75
2018-12-16T14:10:31.737Z,3.08
2018-12-16T14:13:00.943Z,3.05
2018-12-16T14:15:30.134Z,2.32
2018-12-16T14:17:59.400Z,1.96
2018-12-16T14:20:28.726Z,1.91
2018-12-16T14:22:58.053Z,2.22
2018-12-16T14:25:27.278Z,2.41
2018-12-16T14:27:56.391Z,2.57
2018-12-16T14:30:25.750Z,2.62
2018-12-16T14:32:54.868Z,3.05
2018-12-16T14:35:24.346Z,3.32
2018-12-16T14:37:53.611Z,3.44
2018-12-16T14:40:22.728Z,3.48
2018-12-16T14:42:52.068Z,3.55
2018-12-16T14:45:21.404Z,3.53
2018-12-16T14:47:50.723Z,3.23
2018-12-16T14:50:19.985Z,3.36
2018-12-16T14:52:49.128Z,3.48
2018-12-16T14:55:18.336Z,3.53
2018-12-16T14:57:47.637Z,3.64
2018-12-16T15:00:17.092Z,3.73
2018-12-16T15:02:46.441Z,3.74
2018-12-16T15:05:15.719Z,3.83
2018-12-16T15:07:44.834Z,3.77
2018-12-16T15:10:17.206Z,3.63
2018-12-16T15:12:46.480Z,3.44
2018-12-16T15:15:16.504Z,3.21
2018-12-16T15:17:45.660Z,2.72
2018-12-16T15:20:14.847Z,2.95
2018-12-16T15:22:44.128Z,3.17
2018-12-16T15:25:13.640Z,3.05
2018-12-16T15:27:43.033Z,3.52
2018-12-16T15:30:12.190Z,3.69
2018-12-16T15:32:41.511Z,3.90
2018-12-16T15:35:10.989Z,3.88
2018-12-16T15:37:40.156Z,3.76
2018-12-16T15:40:09.744Z,3.05
2018-12-16T15:42:39.155Z,2.75
2018-12-16T15:45:10.078Z,3.02
2018-12-16T15:47:39.488Z,3.40
2018-12-16T15:50:09.640Z,3.06
2018-12-16T15:52:38.863Z,3.39
2018-12-16T15:55:10.303Z,3.61
2018-12-16T15:57:39.764Z,3.82
2018-12-16T16:00:10.620Z,3.93
2018-12-16T16:02:39.763Z,3.97
2018-12-16T16:05:09.084Z,3.89
2018-12-16T16:07:38.409Z,3.83
2018-12-16T16:10:08.865Z,3.60
2018-12-16T16:12:38.123Z,3.39
2018-12-16T16:15:08.130Z,3.50
2018-12-16T16:17:37.660Z,2.77
2018-12-16T16:20:06.812Z,2.72
2018-12-16T16:22:36.056Z,2.55
2018-12-16T16:25:05.580Z,2.97
2018-12-16T16:27:34.760Z,3.07
2018-12-16T16:30:03.999Z,2.96
2018-12-16T16:32:33.403Z,3.09
2018-12-16T16:35:02.780Z,3.36
2018-12-16T16:37:32.692Z,2.51
2018-12-16T16:40:02.052Z,2.95
2018-12-16T16:42:31.154Z,3.16
2018-12-16T16:45:00.583Z,2.79
2018-12-16T16:47:30.195Z,2.94
2018-12-16T16:49:59.355Z,2.79
2018-12-16T16:52:28.589Z,3.02
2018-12-16T16:54:57.857Z,3.26
2018-12-16T16:57:27.220Z,3.31
2018-12-16T16:59:56.470Z,3.34
2018-12-16T17:02:25.927Z,3.23
2018-12-16T17:04:54.963Z,3.19
2018-12-16T17:07:24.382Z,3.16
2018-12-16T17:09:55.464Z,3.26
2018-12-16T17:12:24.706Z,3.38
2018-12-16T17:14:57.151Z,3.47
2018-12-16T17:17:26.386Z,3.53
2018-12-16T17:19:55.695Z,3.66
2018-12-16T17:22:25.012Z,3.60
2018-12-16T17:24:54.176Z,3.70
2018-12-16T17:27:23.240Z,3.73
2018-12-16T17:29:52.435Z,3.66
2018-12-16T17:32:21.897Z,3.69
2018-12-16T17:34:51.151Z,3.69
2018-12-16T17:37:20.534Z,3.72
2018-12-16T17:39:49.803Z,3.78
2018-12-16T17:42:19.140Z,3.78
2018-12-16T17:44:48.274Z,3.86
2018-12-16T17:47:17.544Z,3.68
2018-12-16T17:49:46.683Z,3.72
2018-12-16T17:52:16.036Z,3.88
2018-12-16T17:54:45.200Z,4.00
2018-12-16T17:57:14.309Z,3.99
2018-12-16T17:59:43.569Z,4.07
2018-12-16T18:02:12.708Z,4.14
2018-12-16T18:04:42.119Z,4.20
2018-12-16T18:07:11.431Z,4.25
2018-12-16T18:09:40.780Z,4.31
2018-12-16T18:12:10.059Z,4.34
2018-12-16T18:14:39.312Z,4.35
2018-12-16T18:17:09.671Z,4.39
2018-12-16T18:19:38.989Z,4.39
2018-12-16T18:22:13.958Z,4.46
2018-12-16T18:24:39.466Z,4.50
2018-12-16T18:27:08.746Z,4.45
2018-12-16T18:29:38.036Z,4.50
2018-12-16T18:32:07.339Z,4.47
2018-12-16T18:34:36.869Z,4.45
2018-12-16T18:37:05.993Z,4.48
2018-12-16T18:39:35.460Z,4.45
2018-12-16T18:42:04.801Z,4.41
2018-12-16T18:44:34.033Z,4.40
2018-12-16T18:47:03.282Z,4.41
2018-12-16T18:49:32.680Z,4.45
2018-12-16T18:52:01.851Z,4.40
2018-12-16T18:54:31.270Z,4.37
2018-12-16T18:57:06.982Z,4.39
2018-12-16T18:59:31.998Z,4.46
2018-12-16T19:02:01.621Z,4.46
2018-12-16T19:04:30.742Z,4.45
2018-12-16T19:06:59.995Z,4.47
2018-12-16T19:09:29.127Z,4.47
2018-12-16T19:11:58.552Z,4.54
2018-12-16T19:14:28.155Z,4.50
2018-12-16T19:16:57.535Z,4.52
2018-12-16T19:19:28.103Z,4.54
2018-12-16T19:21:57.356Z,4.55
2018-12-16T19:24:26.520Z,4.53
2018-12-16T19:26:58.437Z,4.56
2018-12-16T19:29:27.084Z,4.54
2018-12-16T19:31:56.527Z,4.25
2018-12-16T19:34:25.679Z,4.21
2018-12-16T19:36:54.887Z,4.25
2018-12-16T19:39:24.142Z,3.56
2018-12-16T19:41:53.352Z,3.20
2018-12-16T19:44:22.542Z,2.98
2018-12-16T19:46:51.920Z,3.18
2018-12-16T19:49:21.116Z,3.17
2018-12-16T19:51:50.292Z,3.23
2018-12-16T19:54:19.587Z,3.36
2018-12-16T19:56:48.641Z,3.80
2018-12-16T19:59:17.625Z,4.12
2018-12-16T20:01:46.968Z,4.30
2018-12-16T20:04:19.579Z,4.36
2018-12-16T20:06:49.080Z,4.39
2018-12-16T20:09:21.311Z,4.47
2018-12-16T20:11:50.518Z,4.46
2018-12-16T20:14:19.777Z,4.14
2018-12-16T20:16:48.952Z,4.04
2018-12-16T20:19:18.280Z,3.40
2018-12-16T20:21:47.412Z,3.08
2018-12-16T20:24:16.699Z,3.12
2018-12-16T20:26:45.887Z,3.18
2018-12-16T20:29:15.011Z,3.30
2018-12-16T20:31:44.221Z,3.75
2018-12-16T20:34:13.344Z,3.31
2018-12-16T20:36:42.616Z,2.89
2018-12-16T20:39:12.010Z,3.16
2018-12-16T20:41:41.113Z,3.34
2018-12-16T20:44:10.264Z,3.77
2018-12-16T20:46:39.410Z,4.08
2018-12-16T20:49:08.640Z,4.26
2018-12-16T20:51:37.715Z,4.33
2018-12-16T20:54:07.652Z,4.39
2018-12-16T20:56:36.775Z,4.34
2018-12-16T20:59:05.919Z,4.44
2018-12-16T21:01:35.174Z,4.57
2018-12-16T21:04:04.468Z,4.64
2018-12-16T21:06:33.623Z,4.69
2018-12-16T21:09:02.919Z,4.73
2018-12-16T21:11:37.071Z,4.40
2018-12-16T21:14:11.251Z,4.10
2018-12-16T21:16:45.553Z,3.67
2018-12-16T21:19:15.449Z,3.19
2018-12-16T21:21:44.921Z,2.78
2018-12-16T21:24:14.258Z,2.85
2018-12-16T21:26:43.868Z,2.90
2018-12-16T21:29:12.976Z,3.13
2018-12-16T21:31:42.795Z,3.59
2018-12-16T21:34:12.356Z,4.01
2018-12-16T21:36:41.495Z,4.23
2018-12-16T21:39:10.679Z,4.38
2018-12-16T21:41:41.797Z,4.41
2018-12-16T21:44:10.820Z,4.46
2018-12-16T21:46:39.952Z,4.31
2018-12-16T21:49:08.987Z,4.42
2018-12-16T21:51:38.612Z,4.42
2018-12-16T21:54:07.924Z,4.42
2018-12-16T21:56:37.072Z,4.15
2018-12-16T21:59:06.320Z,4.36
2018-12-16T22:01:35.315Z,4.55
2018-12-16T22:04:04.445Z,4.61
2018-12-16T22:06:33.585Z,4.65
2018-12-16T22:09:02.755Z,4.75
2018-12-16T22:11:32.164Z,4.78
2018-12-16T22:14:02.437Z,4.36
2018-12-16T22:16:31.564Z,4.43
2018-12-16T22:19:01.642Z,4.47
2018-12-16T22:21:31.361Z,4.62
2018-12-16T22:24:00.682Z,4.61
2018-12-16T22:26:29.779Z,4.57
2018-12-16T22:28:59.051Z,4.55
2018-12-16T22:31:28.363Z,4.56
2018-12-16T22:33:57.364Z,4.55
2018-12-16T22:36:26.462Z,4.57
2018-12-16T22:38:55.664Z,4.56
2018-12-16T22:41:25.043Z,4.58
2018-12-16T22:43:54.680Z,4.59
2018-12-16T22:46:23.653Z,4.54
2018-12-16T22:48:52.841Z,4.53
2018-12-16T22:51:22.464Z,4.52
2018-12-16T22:53:52.390Z,4.56
2018-12-16T22:56:21.908Z,4.59
2018-12-16T22:58:54.317Z,4.53
2018-12-16T23:01:22.671Z,4.55
2018-12-16T23:03:51.804Z,4.52
2018-12-16T23:06:21.144Z,4.48
2018-12-16T23:08:50.728Z,4.55
2018-12-16T23:11:20.276Z,4.54
2018-12-16T23:13:49.481Z,4.55
2018-12-16T23:16:18.805Z,4.57
2018-12-16T23:18:48.241Z,4.60
2018-12-16T23:21:17.553Z,4.68
2018-12-16T23:23:46.971Z,4.72
2018-12-16T23:26:17.880Z,4.72
2018-12-16T23:28:47.191Z,4.73
2018-12-16T23:31:16.393Z,4.73
2018-12-16T23:33:45.525Z,4.71
2018-12-16T23:36:14.680Z,4.72
2018-12-16T23:38:43.800Z,4.72
2018-12-16T23:41:13.118Z,4.75
2018-12-16T23:43:42.225Z,4.80
2018-12-16T23:46:11.355Z,4.85
2018-12-16T23:48:40.513Z,4.85
2018-12-16T23:51:10.011Z,4.89
2018-12-16T23:53:39.337Z,4.85
2018-12-16T23:56:08.449Z,4.87
2018-12-16T23:58:37.655Z,4.95
